Time;durP1;ratioP1;P1;durP2;ratioP2;P2;SDS_P1;SDS_P2;PMS_P1;PMS_P2;Temp;Humidity;BMP_temperature;BMP_pressure;BME280_temperature;BME280_humidity;BME280_pressure;Samples;Min_cycle;Max_cycle;Signal;HPM_P1;HPM_P2
2022/04/27 00:02:16;;;;;;;4.80;3.80;;;10.70;92.70;;;;;;5198446;28;20250;-50
2022/04/27 00:04:46;;;;;;;3.33;3.13;;;10.60;93.30;;;;;;5202528;28;20195;-52
2022/04/27 00:07:17;;;;;;;3.13;3.03;;;10.50;94.00;;;;;;5202118;28;20183;-50
2022/04/27 00:09:47;;;;;;;3.33;3.13;;;10.40;94.80;;;;;;5203793;28;20180;-51
2022/04/27 00:12:18;;;;;;;3.93;3.37;;;10.30;95.80;;;;;;5204909;28;20257;-51
2022/04/27 00:14:48;;;;;;;3.40;3.20;;;10.20;97.10;;;;;;5202938;28;20191;-50
2022/04/27 00:17:19;;;;;;;4.10;3.73;;;10.10;98.20;;;;;;5196990;28;20224;-51
2022/04/27 00:19:50;;;;;;;4.43;2.50;;;9.90;99.60;;;;;;5200715;28;20215;-51
2022/04/27 00:22:20;;;;;;;2.80;2.63;;;9.90;99.90;;;;;;5195060;28;20204;-52
2022/04/27 00:24:51;;;;;;;6.20;3.60;;;9.70;99.90;;;;;;5201747;28;20203;-51
2022/04/27 00:27:21;;;;;;;6.50;3.87;;;9.70;99.90;;;;;;5199163;28;20279;-51
2022/04/27 00:29:52;;;;;;;3.53;3.27;;;9.70;99.90;;;;;;5203496;28;20262;-53
2022/04/27 00:32:22;;;;;;;4.43;3.00;;;9.60;99.90;;;;;;5197435;28;20203;-51
2022/04/27 00:34:53;;;;;;;4.50;3.30;;;9.60;99.90;;;;;;5202019;28;20175;-52
2022/04/27 00:37:23;;;;;;;4.10;3.70;;;9.50;99.90;;;;;;5202715;28;20214;-50
2022/04/27 00:39:54;;;;;;;3.90;3.20;;;9.50;99.90;;;;;;5198218;28;20659;-49
2022/04/27 00:42:25;;;;;;;9.10;4.23;;;9.50;99.90;;;;;;5198787;28;20269;-50
2022/04/27 00:44:55;;;;;;;7.27;4.70;;;9.40;99.90;;;;;;5193521;28;20215;-51
2022/04/27 00:47:28;;;;;;;4.07;3.67;;;9.50;99.90;;;;;;5197879;28;20238;-51
2022/04/27 00:49:58;;;;;;;5.47;4.00;;;9.40;99.90;;;;;;5199998;28;20706;-52
2022/04/27 00:52:32;;;;;;;3.30;3.10;;;9.40;99.90;;;;;;5200803;28;20449;-51
2022/04/27 00:55:03;;;;;;;3.80;3.50;;;9.30;99.90;;;;;;5185285;28;20192;-51
2022/04/27 00:57:34;;;;;;;4.00;3.80;;;9.30;99.90;;;;;;5201205;28;20466;-51
2022/04/27 01:00:07;;;;;;;5.37;3.90;;;9.30;99.90;;;;;;5192480;28;20496;-51
2022/04/27 01:02:38;;;;;;;4.60;3.60;;;9.30;99.90;;;;;;5199657;28;20184;-51
2022/04/27 01:05:09;;;;;;;4.20;3.63;;;9.30;99.90;;;;;;5198326;28;20470;-49
2022/04/27 01:07:41;;;;;;;7.13;4.73;;;9.30;99.90;;;;;;5204224;28;20254;-52
2022/04/27 01:10:12;;;;;;;4.67;4.23;;;9.20;99.90;;;;;;5199477;28;20434;-51
2022/04/27 01:12:42;;;;;;;7.00;3.87;;;9.20;99.90;;;;;;5198005;28;20591;-51
2022/04/27 01:15:29;;;;;;;6.60;4.90;;;9.10;99.90;;;;;;5212902;28;20247;-51
2022/04/27 01:18:00;;;;;;;4.10;3.80;;;9.00;99.90;;;;;;5192992;28;20183;-51
2022/04/27 01:20:44;;;;;;;4.37;3.50;;;8.90;99.90;;;;;;5204532;28;20462;-52
2022/04/27 01:23:15;;;;;;;3.63;3.40;;;8.90;99.90;;;;;;5201383;28;20282;-51
2022/04/27 01:25:50;;;;;;;4.47;4.07;;;8.80;99.90;;;;;;5201571;28;20465;-50
2022/04/27 01:28:23;;;;;;;5.00;4.17;;;8.80;99.90;;;;;;5198532;28;20176;-50
2022/04/27 01:31:05;;;;;;;5.17;4.67;;;8.70;99.90;;;;;;5196731;28;20562;-50
2022/04/27 01:33:36;;;;;;;4.60;4.30;;;8.60;99.90;;;;;;5196881;28;20473;-50
2022/04/27 01:36:08;;;;;;;5.77;5.13;;;8.60;99.90;;;;;;5195230;28;20814;-51
2022/04/27 01:38:41;;;;;;;4.37;4.07;;;8.50;99.90;;;;;;5197652;28;20442;-50
2022/04/27 01:41:12;;;;;;;8.13;4.13;;;8.50;99.90;;;;;;5201753;28;20461;-52
2022/04/27 01:43:42;;;;;;;5.97;5.33;;;8.40;99.90;;;;;;5196040;28;20447;-50
2022/04/27 01:46:13;;;;;;;5.00;4.27;;;8.40;99.90;;;;;;5199010;28;20441;-51
2022/04/27 01:48:43;;;;;;;5.70;4.60;;;8.30;99.90;;;;;;5198650;28;20218;-49
2022/04/27 01:51:14;;;;;;;5.63;4.80;;;8.30;99.90;;;;;;5219164;23;20551;-50
2022/04/27 01:56:37;;;;;;;6.10;5.50;;;8.20;99.90;;;;;;5238904;28;20179;-52
2022/04/27 01:59:09;;;;;;;7.03;5.43;;;8.10;99.90;;;;;;5242135;28;20433;-52
2022/04/27 02:01:40;;;;;;;13.90;7.80;;;8.10;99.90;;;;;;5249932;28;20204;-50
2022/04/27 02:04:11;;;;;;;7.60;5.80;;;8.00;99.90;;;;;;5258802;28;20662;-52
2022/04/27 02:06:42;;;;;;;5.10;4.70;;;8.00;99.90;;;;;;5264701;28;20881;-51
2022/04/27 02:09:12;;;;;;;6.77;6.03;;;8.00;99.90;;;;;;5260668;28;20182;-52
2022/04/27 02:11:43;;;;;;;6.00;5.40;;;7.90;99.90;;;;;;5258688;28;20463;-51
2022/04/27 02:14:13;;;;;;;6.87;6.17;;;7.90;99.90;;;;;;5261039;28;20604;-51
2022/04/27 02:16:44;;;;;;;12.70;6.10;;;7.90;99.90;;;;;;5256940;28;20190;-53
2022/04/27 02:19:14;;;;;;;9.67;6.17;;;7.80;99.90;;;;;;5259017;28;20189;-51
2022/04/27 02:21:45;;;;;;;9.43;6.20;;;7.80;99.90;;;;;;5262901;28;20209;-49
2022/04/27 02:24:16;;;;;;;6.50;5.90;;;7.80;99.90;;;;;;5256693;28;20262;-52
2022/04/27 02:26:46;;;;;;;8.70;5.97;;;7.80;99.90;;;;;;5258274;28;20228;-50
2022/04/27 02:29:17;;;;;;;11.70;7.00;;;7.80;99.90;;;;;;5254387;28;20192;-51
2022/04/27 02:31:47;;;;;;;7.10;6.37;;;7.80;99.90;;;;;;5252870;28;20185;-50
2022/04/27 02:34:18;;;;;;;9.63;5.80;;;7.70;99.90;;;;;;5257836;28;20193;-51
2022/04/27 02:36:48;;;;;;;8.90;6.10;;;7.70;99.90;;;;;;5261886;28;20257;-53
2022/04/27 02:39:19;;;;;;;6.57;5.83;;;7.60;99.90;;;;;;5258555;28;20228;-52
2022/04/27 02:41:49;;;;;;;6.47;5.93;;;7.60;99.90;;;;;;5257028;28;20228;-53
2022/04/27 02:44:20;;;;;;;7.80;6.13;;;7.50;99.90;;;;;;5262898;28;20198;-47
2022/04/27 02:46:51;;;;;;;7.77;6.13;;;7.60;99.90;;;;;;5263493;28;20796;-52
2022/04/27 02:52:10;;;;;;;6.47;5.87;;;7.50;99.90;;;;;;5254942;28;20215;-50
2022/04/27 02:54:41;;;;;;;6.33;5.73;;;7.50;99.90;;;;;;5245764;28;20441;-50
2022/04/27 02:57:12;;;;;;;7.70;6.17;;;7.40;99.90;;;;;;5258967;28;20265;-52
2022/04/27 02:59:43;;;;;;;6.40;5.50;;;7.40;99.90;;;;;;5262879;28;20185;-50
2022/04/27 03:02:14;;;;;;;5.80;5.13;;;7.40;99.90;;;;;;5257908;28;20189;-49
2022/04/27 03:04:44;;;;;;;7.87;7.07;;;7.40;99.90;;;;;;5259208;28;20490;-49
2022/04/27 03:07:15;;;;;;;6.60;5.80;;;7.30;99.90;;;;;;5264677;28;20181;-51
2022/04/27 03:09:47;;;;;;;8.23;5.97;;;7.30;99.90;;;;;;5241500;28;20192;-52
2022/04/27 03:12:17;;;;;;;6.03;5.47;;;7.30;99.90;;;;;;5259391;28;20247;-49
2022/04/27 03:14:48;;;;;;;7.97;5.70;;;7.30;99.90;;;;;;5251492;28;20438;-51
2022/04/27 03:17:18;;;;;;;7.43;5.80;;;7.20;99.90;;;;;;5258264;28;20182;-52
2022/04/27 03:19:49;;;;;;;11.43;5.20;;;7.10;99.90;;;;;;5253019;28;20216;-52
2022/04/27 03:22:19;;;;;;;9.47;6.07;;;7.10;99.90;;;;;;5255224;28;20194;-51
2022/04/27 03:24:50;;;;;;;13.13;6.50;;;7.10;99.90;;;;;;5259872;28;20710;-49
2022/04/27 03:27:20;;;;;;;6.20;5.53;;;7.10;99.90;;;;;;5257668;28;20209;-50
2022/04/27 03:29:51;;;;;;;9.17;5.93;;;7.20;99.90;;;;;;5258718;28;20196;-51
2022/04/27 03:32:22;;;;;;;7.70;6.00;;;7.10;99.90;;;;;;5260682;28;20221;-50
2022/04/27 03:34:53;;;;;;;9.93;6.60;;;7.10;99.90;;;;;;5270557;28;20189;-48
2022/04/27 03:37:23;;;;;;;8.07;5.63;;;7.10;99.90;;;;;;5260349;28;20966;-51
2022/04/27 03:39:54;;;;;;;11.33;6.10;;;7.10;99.90;;;;;;5255802;28;20278;-53
2022/04/27 03:42:24;;;;;;;7.00;5.97;;;7.10;99.90;;;;;;5258182;28;20197;-52
2022/04/27 03:44:55;;;;;;;8.03;6.10;;;7.10;99.90;;;;;;5258897;28;20240;-49
2022/04/27 03:47:26;;;;;;;9.50;6.13;;;7.10;99.90;;;;;;5253036;28;20192;-49
2022/04/27 03:50:03;;;;;;;13.33;7.10;;;7.10;99.90;;;;;;5261870;28;20651;-52
2022/04/27 03:52:33;;;;;;;12.13;7.00;;;7.10;99.90;;;;;;5260813;28;20232;-50
2022/04/27 03:55:04;;;;;;;7.00;5.40;;;7.10;99.90;;;;;;5258635;28;20451;-53
2022/04/27 03:57:34;;;;;;;7.07;6.00;;;7.10;99.90;;;;;;5259562;28;20265;-51
2022/04/27 04:00:06;;;;;;;7.50;5.70;;;7.10;99.90;;;;;;5255729;28;20592;-48
2022/04/27 04:02:37;;;;;;;9.73;6.37;;;7.20;99.90;;;;;;5251482;28;20245;-51
2022/04/27 04:05:08;;;;;;;8.00;6.27;;;7.20;99.90;;;;;;5250406;28;20521;-51
2022/04/27 04:07:39;;;;;;;9.57;6.57;;;7.30;99.90;;;;;;5258509;28;20443;-51
2022/04/27 04:10:10;;;;;;;6.60;6.00;;;7.30;99.90;;;;;;5248305;28;20178;-51
2022/04/27 04:12:40;;;;;;;9.73;7.03;;;7.40;99.90;;;;;;5255202;28;20257;-50
2022/04/27 04:15:12;;;;;;;5.90;5.40;;;7.40;99.90;;;;;;5255603;28;20178;-51
2022/04/27 04:17:45;;;;;;;9.97;5.70;;;7.40;99.90;;;;;;5241997;28;20185;-51
2022/04/27 04:20:17;;;;;;;10.40;6.73;;;7.40;99.90;;;;;;5261258;28;20519;-50
2022/04/27 04:22:48;;;;;;;8.63;5.87;;;7.50;99.90;;;;;;5257853;28;20460;-50
2022/04/27 04:31:02;;;;;;;8.73;6.07;;;7.70;99.90;;;;;;5260099;28;20578;-51
2022/04/27 04:33:33;;;;;;;10.23;6.70;;;7.70;99.90;;;;;;5260138;28;20434;-49
2022/04/27 04:36:03;;;;;;;12.07;6.33;;;7.80;99.90;;;;;;5260083;28;20426;-50
2022/04/27 04:38:34;;;;;;;7.97;5.97;;;8.20;99.90;;;;;;5267968;28;20189;-50
2022/04/27 04:41:04;;;;;;;6.10;5.50;;;8.60;99.90;;;;;;5259049;28;20212;-52
2022/04/27 04:43:35;;;;;;;7.33;6.20;;;8.80;99.90;;;;;;5256565;28;20196;-51
2022/04/27 04:46:06;;;;;;;6.73;5.67;;;9.00;99.90;;;;;;5256171;28;20567;-51
2022/04/27 04:48:36;;;;;;;7.90;5.80;;;9.30;99.90;;;;;;5259344;28;20188;-51
2022/04/27 04:51:07;;;;;;;7.13;5.00;;;9.70;99.90;;;;;;5257234;28;20225;-51
2022/04/27 04:53:38;;;;;;;8.23;6.30;;;9.90;99.90;;;;;;5248161;28;20173;-50
2022/04/27 04:56:08;;;;;;;8.50;6.47;;;10.20;99.90;;;;;;5261583;28;20458;-52
2022/04/27 04:58:39;;;;;;;10.20;5.67;;;11.00;99.90;;;;;;5257892;28;20597;-51
2022/04/27 05:01:09;;;;;;;5.57;4.83;;;12.30;94.00;;;;;;5249478;28;20210;-49
2022/04/27 05:03:40;;;;;;;8.40;5.67;;;12.90;79.70;;;;;;5240462;28;20323;-52
2022/04/27 05:06:11;;;;;;;7.00;5.60;;;12.70;75.50;;;;;;5258114;28;20369;-52
2022/04/27 05:08:41;;;;;;;8.33;6.97;;;12.20;74.50;;;;;;5263121;28;20177;-50
2022/04/27 05:11:12;;;;;;;10.30;5.70;;;11.70;76.80;;;;;;5259410;28;20198;-50
2022/04/27 05:13:42;;;;;;;7.20;5.73;;;11.30;80.80;;;;;;5261622;28;20584;-51
2022/04/27 05:16:12;;;;;;;8.47;5.20;;;11.10;83.90;;;;;;5257689;28;20173;-51
2022/04/27 05:18:43;;;;;;;7.70;5.70;;;11.40;88.90;;;;;;5259816;28;20186;-51
2022/04/27 05:21:13;;;;;;;9.37;6.00;;;13.20;77.50;;;;;;5253919;28;20327;-52
2022/04/27 05:23:44;;;;;;;11.63;6.97;;;15.40;59.10;;;;;;5260785;28;20653;-51
2022/04/27 05:26:15;;;;;;;5.70;5.20;;;15.90;53.50;;;;;;5262415;28;20209;-53
2022/04/27 05:34:25;;;;;;;8.53;6.10;;;17.20;48.50;;;;;;5259637;28;20434;-52
2022/04/27 05:36:59;;;;;;;13.50;7.00;;;18.70;46.20;;;;;;5255943;28;20435;-49
2022/04/27 05:39:30;;;;;;;6.70;5.90;;;20.20;42.00;;;;;;5250261;28;20535;-51
2022/04/27 05:42:01;;;;;;;12.80;6.37;;;21.30;39.70;;;;;;5261360;28;20530;-49
2022/04/27 05:44:31;;;;;;;8.47;6.07;;;22.80;36.30;;;;;;5254663;28;20611;-52
2022/04/27 05:47:02;;;;;;;16.70;7.37;;;24.00;35.00;;;;;;5259825;28;20182;-52
2022/04/27 05:49:32;;;;;;;5.33;4.90;;;25.20;31.80;;;;;;5258739;28;20185;-52
2022/04/27 05:52:03;;;;;;;6.43;4.97;;;25.50;31.10;;;;;;5255134;28;20221;-53
2022/04/27 05:54:34;;;;;;;7.70;5.20;;;26.30;29.70;;;;;;5257506;28;20220;-53
2022/04/27 05:57:04;;;;;;;6.23;5.20;;;27.00;28.50;;;;;;5260057;28;20347;-49
2022/04/27 05:59:35;;;;;;;5.73;5.03;;;27.30;27.80;;;;;;5259314;28;20190;-53
2022/04/27 06:02:05;;;;;;;4.83;4.53;;;25.60;28.50;;;;;;5261171;28;20209;-53
2022/04/27 06:04:36;;;;;;;8.30;5.60;;;23.70;30.20;;;;;;5260644;28;20292;-53
2022/04/27 06:07:07;;;;;;;8.27;5.57;;;22.40;30.70;;;;;;5254540;28;20556;-51
2022/04/27 06:09:38;;;;;;;8.97;6.30;;;21.20;33.50;;;;;;5256075;28;20174;-52
2022/04/27 06:12:09;;;;;;;8.87;5.10;;;22.20;32.90;;;;;;5255781;28;21829;-52
2022/04/27 06:14:39;;;;;;;10.30;6.50;;;23.80;31.80;;;;;;5264403;28;20223;-49
2022/04/27 06:17:10;;;;;;;9.80;6.70;;;25.10;29.10;;;;;;5256350;28;20561;-50
2022/04/27 06:19:40;;;;;;;6.90;5.77;;;26.40;28.30;;;;;;5262155;28;20212;-53
2022/04/27 06:22:11;;;;;;;11.23;6.23;;;27.40;27.00;;;;;;5262677;28;20210;-52
2022/04/27 06:24:41;;;;;;;5.80;5.30;;;28.30;26.30;;;;;;5246521;28;20206;-53
2022/04/27 06:27:12;;;;;;;15.00;7.87;;;28.70;25.80;;;;;;5257189;28;20190;-49
2022/04/27 06:29:42;;;;;;;5.67;5.20;;;29.10;25.00;;;;;;5249759;28;20260;-52
2022/04/27 06:32:13;;;;;;;8.83;6.20;;;29.40;24.80;;;;;;5258911;28;20262;-51
2022/04/27 06:34:43;;;;;;;7.63;5.27;;;29.90;24.00;;;;;;5258991;28;20178;-52
2022/04/27 06:37:14;;;;;;;9.97;5.70;;;30.10;23.50;;;;;;5264556;28;20218;-53
2022/04/27 06:39:45;;;;;;;8.13;5.50;;;30.10;23.10;;;;;;5264186;28;20541;-55
2022/04/27 06:42:20;;;;;;;8.93;6.23;;;30.20;23.30;;;;;;5262118;28;20198;-52
2022/04/27 06:44:50;;;;;;;7.43;5.50;;;30.40;22.70;;;;;;5262345;28;20570;-53
2022/04/27 06:47:21;;;;;;;8.43;5.23;;;30.00;22.80;;;;;;5245544;28;20465;-52
2022/04/27 06:49:51;;;;;;;9.03;5.67;;;30.30;23.30;;;;;;5249068;28;20188;-51
2022/04/27 06:52:22;;;;;;;5.93;4.77;;;30.30;23.50;;;;;;5250239;28;20232;-54
2022/04/27 06:54:52;;;;;;;8.50;5.33;;;30.60;23.20;;;;;;5242092;28;20701;-54
2022/04/27 06:57:23;;;;;;;7.07;5.43;;;30.80;22.80;;;;;;5249799;28;20182;-51
2022/04/27 06:59:53;;;;;;;12.20;6.13;;;30.30;22.70;;;;;;5254731;28;20283;-53
2022/04/27 07:02:24;;;;;;;11.00;5.60;;;29.70;23.30;;;;;;5254765;28;20194;-48
2022/04/27 07:04:59;;;;;;;8.83;4.87;;;29.20;24.00;;;;;;5253574;28;20309;-51
2022/04/27 07:07:30;;;;;;;5.37;4.87;;;29.60;24.20;;;;;;5260147;28;20186;-53
2022/04/27 07:10:01;;;;;;;5.60;5.10;;;30.10;23.40;;;;;;5266500;28;20729;-53
2022/04/27 07:12:32;;;;;;;14.00;6.50;;;30.20;23.50;;;;;;5257002;28;20633;-53
2022/04/27 07:15:03;;;;;;;15.73;5.70;;;30.20;23.10;;;;;;5257795;28;21457;-50
2022/04/27 07:17:33;;;;;;;7.13;4.67;;;30.20;23.30;;;;;;5262448;28;20181;-52
2022/04/27 07:20:05;;;;;;;6.83;6.13;;;30.60;23.20;;;;;;5261220;28;20219;-53
2022/04/27 07:22:36;;;;;;;5.20;4.80;;;31.30;22.50;;;;;;5262564;28;20205;-52
2022/04/27 07:25:07;;;;;;;5.40;4.90;;;31.50;21.60;;;;;;5259154;28;20480;-53
2022/04/27 07:27:38;;;;;;;10.67;5.67;;;30.20;22.30;;;;;;5262857;28;20475;-53
2022/04/27 07:30:09;;;;;;;5.63;4.73;;;29.60;22.90;;;;;;5260386;28;20241;-54
2022/04/27 07:32:40;;;;;;;10.07;6.27;;;29.80;23.60;;;;;;5260168;28;20202;-55
2022/04/27 07:35:11;;;;;;;5.10;4.70;;;30.30;22.50;;;;;;5256536;28;20468;-54
2022/04/27 07:37:41;;;;;;;18.70;5.70;;;29.90;22.90;;;;;;5266464;28;20185;-53
2022/04/27 07:40:13;;;;;;;7.50;4.50;;;29.80;22.90;;;;;;5255535;28;20190;-52
2022/04/27 07:42:43;;;;;;;5.07;4.57;;;29.80;22.80;;;;;;5257446;28;20674;-53
2022/04/27 07:45:15;;;;;;;6.53;4.57;;;30.40;22.60;;;;;;5263014;28;20458;-52
2022/04/27 07:47:46;;;;;;;4.23;3.90;;;30.20;22.10;;;;;;5253980;28;20204;-54
2022/04/27 07:50:18;;;;;;;7.67;4.97;;;30.70;21.90;;;;;;5260433;28;20459;-55
2022/04/27 07:52:49;;;;;;;6.03;5.53;;;30.70;21.80;;;;;;5259520;23;20515;-56
2022/04/27 07:55:19;;;;;;;5.60;4.43;;;31.00;20.80;;;;;;5240360;28;20793;-56
2022/04/27 07:57:50;;;;;;;5.57;4.10;;;30.60;21.20;;;;;;5236623;28;20236;-59
2022/04/27 08:00:20;;;;;;;14.13;4.17;;;30.00;21.40;;;;;;5243817;28;20190;-56
2022/04/27 08:02:51;;;;;;;8.27;4.70;;;29.90;21.70;;;;;;5238138;28;20202;-55
2022/04/27 08:05:22;;;;;;;11.40;4.50;;;29.50;21.60;;;;;;5252875;28;20215;-56
2022/04/27 08:07:52;;;;;;;6.67;4.30;;;28.60;22.20;;;;;;5244812;28;20172;-58
2022/04/27 08:10:23;;;;;;;6.80;3.90;;;28.20;22.80;;;;;;5248657;28;20217;-58
2022/04/27 08:12:54;;;;;;;3.13;2.93;;;28.80;22.20;;;;;;5234972;28;20287;-56
2022/04/27 08:15:25;;;;;;;3.43;3.10;;;28.80;21.70;;;;;;5238774;28;20549;-55
2022/04/27 08:17:59;;;;;;;3.33;3.03;;;28.90;21.30;;;;;;5242260;28;20182;-56
2022/04/27 08:23:23;;;;;;;3.03;2.77;;;28.90;21.60;;;;;;5243223;28;20432;-59
2022/04/27 08:25:54;;;;;;;2.40;2.30;;;29.70;21.00;;;;;;5239955;28;21054;-55
2022/04/27 08:28:25;;;;;;;2.10;2.00;;;29.40;20.10;;;;;;5259821;28;20536;-56
2022/04/27 08:30:56;;;;;;;5.43;2.47;;;28.20;20.40;;;;;;5241469;28;20607;-55
2022/04/27 08:33:27;;;;;;;2.40;2.20;;;26.80;20.80;;;;;;5244473;28;20452;-56
2022/04/27 08:35:59;;;;;;;2.80;1.90;;;25.70;22.00;;;;;;5248011;28;20575;-58
2022/04/27 08:38:30;;;;;;;2.07;1.90;;;24.70;22.90;;;;;;5254112;28;20189;-56
2022/04/27 08:41:01;;;;;;;3.23;2.20;;;24.00;23.30;;;;;;5241056;28;20453;-55
2022/04/27 08:43:31;;;;;;;1.83;1.83;;;23.30;24.40;;;;;;5248155;28;20437;-56
2022/04/27 08:46:03;;;;;;;2.30;2.20;;;22.80;24.40;;;;;;5242305;28;20222;-57
2022/04/27 08:48:34;;;;;;;1.90;1.90;;;22.40;25.70;;;;;;5238127;28;20565;-55
2022/04/27 08:51:05;;;;;;;2.37;2.17;;;22.10;26.50;;;;;;5241104;28;20460;-58
2022/04/27 08:53:35;;;;;;;3.23;2.70;;;21.10;26.80;;;;;;5244051;28;20544;-55
2022/04/27 08:56:06;;;;;;;2.67;2.47;;;20.30;28.00;;;;;;5238933;28;20478;-56
2022/04/27 08:58:36;;;;;;;4.40;3.10;;;20.00;28.80;;;;;;5237442;28;20194;-56
2022/04/27 09:01:07;;;;;;;6.63;3.17;;;19.20;29.30;;;;;;5233713;28;20635;-57
2022/04/27 09:03:40;;;;;;;4.30;2.70;;;18.50;30.00;;;;;;5238997;28;20192;-55
2022/04/27 09:06:13;;;;;;;3.27;3.00;;;18.00;31.30;;;;;;5239528;28;20264;-57
2022/04/27 09:08:46;;;;;;;3.10;2.87;;;18.00;32.00;;;;;;5246902;28;20826;-55
2022/04/27 09:11:29;;;;;;;3.27;2.97;;;18.20;32.10;;;;;;5245830;28;20460;-53
2022/04/27 09:14:06;;;;;;;3.03;2.83;;;18.10;30.20;;;;;;5243315;28;20433;-56
2022/04/27 09:22:44;;;;;;;3.10;2.80;;;17.30;32.50;;;;;;5230261;28;20946;-54
2022/04/27 09:25:15;;;;;;;3.37;3.03;;;17.60;32.60;;;;;;5236154;28;20797;-54
2022/04/27 09:27:52;;;;;;;11.17;3.43;;;17.60;31.70;;;;;;5246555;28;20444;-55
2022/04/27 09:30:27;;;;;;;2.80;2.60;;;17.40;30.70;;;;;;5237727;28;21022;-56
2022/04/27 09:32:58;;;;;;;2.43;2.23;;;17.10;31.40;;;;;;5231375;28;20455;-55
2022/04/27 09:35:36;;;;;;;2.10;2.00;;;17.00;32.10;;;;;;5238922;28;20446;-56
2022/04/27 09:38:21;;;;;;;3.00;2.10;;;17.00;32.00;;;;;;5241659;28;20516;-56
2022/04/27 09:40:54;;;;;;;2.23;2.13;;;17.00;31.60;;;;;;5240074;28;20813;-55
2022/04/27 09:43:44;;;;;;;1.73;1.73;;;17.30;31.80;;;;;;5238814;28;20805;-55
2022/04/27 09:46:22;;;;;;;2.73;2.40;;;17.60;31.20;;;;;;5236408;28;20473;-60
2022/04/27 09:49:02;;;;;;;13.03;2.93;;;17.80;30.60;;;;;;5235046;28;20440;-54
2022/04/27 09:51:34;;;;;;;1.60;1.60;;;17.90;30.40;;;;;;5246540;28;20512;-57
2022/04/27 09:54:04;;;;;;;2.30;2.10;;;18.00;30.40;;;;;;5243311;28;20447;-57
2022/04/27 09:56:38;;;;;;;1.97;1.93;;;18.00;30.10;;;;;;5240586;28;20939;-55
2022/04/27 09:59:10;;;;;;;1.80;1.67;;;17.90;29.80;;;;;;5241618;28;20178;-61
2022/04/27 10:01:41;;;;;;;2.17;2.07;;;17.70;30.00;;;;;;5237620;28;20448;-57
2022/04/27 10:04:18;;;;;;;1.70;1.60;;;17.60;30.00;;;;;;5236295;28;20447;-55
2022/04/27 10:06:49;;;;;;;8.77;1.57;;;17.30;30.10;;;;;;5233221;28;20428;-55
2022/04/27 10:09:20;;;;;;;1.67;1.57;;;17.30;30.90;;;;;;5234483;28;20429;-58
2022/04/27 10:11:51;;;;;;;1.80;1.70;;;17.50;30.20;;;;;;5240909;28;20467;-56
2022/04/27 10:14:22;;;;;;;1.70;1.60;;;17.70;30.00;;;;;;5234381;28;20183;-54
2022/04/27 10:16:56;;;;;;;1.80;1.70;;;17.80;29.80;;;;;;5239397;28;20899;-57
2022/04/27 10:19:26;;;;;;;4.07;1.90;;;17.60;29.40;;;;;;5239725;28;20187;-55
2022/04/27 10:21:57;;;;;;;1.63;1.57;;;17.40;30.00;;;;;;5238988;28;20459;-56
2022/04/27 10:24:49;;;;;;;4.10;1.60;;;17.10;30.30;;;;;;5245701;28;20641;-54
2022/04/27 10:27:21;;;;;;;1.90;1.77;;;17.10;30.20;;;;;;5244165;28;20554;-56
2022/04/27 10:29:57;;;;;;;2.67;2.47;;;17.30;30.10;;;;;;5243879;28;20972;-54
2022/04/27 10:32:45;;;;;;;1.60;1.50;;;17.60;29.80;;;;;;5238406;28;20479;-55
2022/04/27 10:35:27;;;;;;;3.00;2.50;;;17.70;29.30;;;;;;5238592;28;20519;-56
2022/04/27 10:38:00;;;;;;;9.50;3.10;;;17.60;29.50;;;;;;5242350;28;20433;-58
2022/04/27 10:40:42;;;;;;;1.93;1.90;;;17.50;29.80;;;;;;5235214;28;20424;-55
2022/04/27 10:43:27;;;;;;;11.00;3.40;;;17.50;30.10;;;;;;5240390;28;20452;-55
2022/04/27 10:45:59;;;;;;;15.00;2.33;;;17.60;30.10;;;;;;5243513;28;20468;-55
2022/04/27 10:48:48;;;;;;;21.53;12.00;;;17.80;30.10;;;;;;5240675;28;20490;-55
2022/04/27 10:51:20;;;;;;;9.23;2.27;;;18.00;29.90;;;;;;5233680;28;20471;-58
2022/04/27 10:53:51;;;;;;;5.00;4.60;;;18.40;29.50;;;;;;5236914;28;20441;-56
2022/04/27 10:56:26;;;;;;;20.63;13.63;;;18.50;29.00;;;;;;5237272;28;20433;-55
2022/04/27 10:58:56;;;;;;;17.40;9.40;;;18.60;29.40;;;;;;5235322;28;20543;-56
2022/04/27 11:01:31;;;;;;;3.30;3.03;;;18.80;29.50;;;;;;5238098;28;20452;-56
2022/04/27 11:04:05;;;;;;;2.50;2.30;;;18.70;29.30;;;;;;5240606;28;20186;-56
2022/04/27 11:07:05;;;;;;;3.80;2.50;;;18.60;29.20;;;;;;5239451;28;20491;-55
2022/04/27 11:10:08;;;;;;;14.80;2.00;;;18.30;30.00;;;;;;5244205;28;20837;-55
2022/04/27 11:12:39;;;;;;;1.63;1.53;;;18.20;29.60;;;;;;5232327;28;20547;-57
2022/04/27 11:15:11;;;;;;;1.50;1.50;;;17.90;29.70;;;;;;5239291;28;20443;-56
2022/04/27 11:17:42;;;;;;;48.43;3.93;;;18.00;28.90;;;;;;5242885;28;20939;-54
2022/04/27 11:20:32;;;;;;;18.33;5.60;;;18.20;29.00;;;;;;5237372;28;20682;-56
2022/04/27 11:23:08;;;;;;;6.53;5.83;;;18.50;28.80;;;;;;5243801;28;20202;-58
2022/04/27 11:25:40;;;;;;;2.50;2.40;;;18.60;28.00;;;;;;5238581;28;20818;-56
2022/04/27 11:28:11;;;;;;;2.77;2.57;;;19.00;27.90;;;;;;5233885;28;20437;-57
2022/04/27 11:30:43;;;;;;;4.67;2.67;;;19.40;27.90;;;;;;5236042;28;20452;-56
2022/04/27 11:33:16;;;;;;;1.67;1.57;;;19.40;28.20;;;;;;5239298;28;21013;-55
2022/04/27 11:35:49;;;;;;;2.53;2.43;;;19.60;28.20;;;;;;5245945;28;20447;-55
2022/04/27 11:38:21;;;;;;;2.27;2.17;;;19.60;28.10;;;;;;5249687;28;20898;-55
2022/04/27 11:40:52;;;;;;;1.60;1.53;;;19.50;28.60;;;;;;5250154;28;20501;-57
2022/04/27 11:43:31;;;;;;;1.93;1.53;;;19.40;28.80;;;;;;5249014;28;20447;-55
2022/04/27 11:46:02;;;;;;;1.80;1.70;;;19.40;28.50;;;;;;5250864;28;20491;-56
2022/04/27 11:48:33;;;;;;;1.50;1.40;;;19.30;28.50;;;;;;5246886;28;20483;-54
2022/04/27 11:51:06;;;;;;;1.40;1.40;;;19.30;28.50;;;;;;5247514;28;20869;-56
2022/04/27 11:53:49;;;;;;;2.03;1.93;;;19.30;28.50;;;;;;5246547;28;20219;-57
2022/04/27 11:56:19;;;;;;;2.63;2.00;;;19.20;28.70;;;;;;5241602;28;20455;-56
2022/04/27 11:58:50;;;;;;;2.10;2.03;;;18.80;29.40;;;;;;5245254;28;20435;-56
2022/04/27 12:01:22;;;;;;;2.40;2.23;;;18.50;30.00;;;;;;5240503;28;20233;-57
2022/04/27 12:03:53;;;;;;;1.80;1.80;;;18.10;30.30;;;;;;5245204;28;20269;-55
2022/04/27 12:06:27;;;;;;;2.60;2.40;;;17.80;30.60;;;;;;5241864;28;20595;-53
2022/04/27 12:09:02;;;;;;;4.93;2.00;;;17.50;30.80;;;;;;5235676;28;20476;-56
2022/04/27 12:11:34;;;;;;;2.67;2.47;;;17.30;31.20;;;;;;5234639;28;20470;-54
2022/04/27 12:14:05;;;;;;;2.13;2.03;;;17.20;31.20;;;;;;5236924;28;20866;-56
2022/04/27 12:16:35;;;;;;;1.80;1.70;;;17.20;30.90;;;;;;5239220;28;20445;-56
2022/04/27 12:19:06;;;;;;;2.07;1.97;;;17.30;29.40;;;;;;5258401;28;20190;-55
2022/04/27 12:21:37;;;;;;;1.70;1.60;;;17.60;29.50;;;;;;5245478;28;20525;-56
2022/04/27 12:24:16;;;;;;;3.80;1.80;;;17.80;29.40;;;;;;5243485;28;20185;-57
2022/04/27 12:26:46;;;;;;;1.80;1.70;;;18.20;29.30;;;;;;5251521;28;20444;-57
2022/04/27 12:29:17;;;;;;;2.50;2.10;;;18.70;28.90;;;;;;5246586;28;21656;-55
2022/04/27 12:31:56;;;;;;;1.80;1.70;;;19.20;28.70;;;;;;5246581;28;20198;-55
2022/04/27 12:37:30;;;;;;;5.70;1.90;;;19.10;28.40;;;;;;5246131;28;20436;-55
2022/04/27 12:40:17;;;;;;;2.03;1.93;;;18.80;28.50;;;;;;5252094;28;20444;-54
2022/04/27 12:43:08;;;;;;;6.00;1.60;;;18.70;28.50;;;;;;5258266;28;20455;-55
2022/04/27 12:45:38;;;;;;;4.80;1.63;;;18.80;28.40;;;;;;5238285;28;20846;-58
2022/04/27 12:48:27;;;;;;;1.33;1.23;;;18.90;28.20;;;;;;5240474;28;20464;-57
2022/04/27 12:50:59;;;;;;;2.57;1.73;;;18.70;28.20;;;;;;5240254;28;20178;-56
2022/04/27 12:53:30;;;;;;;3.77;1.33;;;18.40;28.50;;;;;;5247920;28;20428;-57
2022/04/27 12:56:05;;;;;;;2.30;2.10;;;18.30;29.20;;;;;;5240040;28;20428;-57
2022/04/27 12:58:36;;;;;;;4.10;3.73;;;18.10;29.10;;;;;;5240274;28;20516;-56
2022/04/27 13:01:07;;;;;;;1.97;1.60;;;18.00;29.40;;;;;;5242537;28;20477;-56
2022/04/27 13:03:37;;;;;;;5.47;3.27;;;18.00;29.60;;;;;;5242695;28;20471;-56
2022/04/27 13:06:08;;;;;;;2.30;2.00;;;17.90;29.60;;;;;;5245708;28;20208;-55
2022/04/27 13:08:38;;;;;;;3.17;2.87;;;17.80;29.90;;;;;;5239612;28;20190;-57
2022/04/27 13:13:58;;;;;;;1.50;1.50;;;18.20;29.80;;;;;;5238237;28;20174;-57
2022/04/27 13:16:29;;;;;;;2.53;2.33;;;18.50;29.70;;;;;;5224506;28;20430;-54
2022/04/27 13:18:59;;;;;;;2.17;2.07;;;18.50;29.50;;;;;;5241089;28;20292;-58
2022/04/27 13:21:30;;;;;;;1.27;1.27;;;18.40;29.50;;;;;;5231540;28;20293;-56
2022/04/27 13:24:01;;;;;;;3.83;1.90;;;18.30;29.50;;;;;;5236768;28;20175;-56
2022/04/27 13:26:34;;;;;;;2.03;1.93;;;18.10;29.60;;;;;;5234497;28;20245;-55
2022/04/27 13:29:05;;;;;;;2.37;2.03;;;17.90;29.90;;;;;;5241720;28;20421;-58
2022/04/27 13:31:36;;;;;;;2.33;2.13;;;17.90;30.00;;;;;;5240378;28;20994;-55
2022/04/27 13:34:06;;;;;;;12.10;2.13;;;17.80;30.30;;;;;;5241761;28;20179;-56
2022/04/27 13:36:37;;;;;;;10.13;4.60;;;17.70;30.10;;;;;;5244687;28;20759;-56
2022/04/27 13:39:07;;;;;;;10.83;6.20;;;17.60;30.70;;;;;;5243448;28;20194;-57
2022/04/27 13:41:38;;;;;;;4.30;2.20;;;17.70;31.30;;;;;;5226075;28;20217;-57
2022/04/27 13:44:08;;;;;;;21.00;12.57;;;17.60;31.40;;;;;;5235953;28;20201;-56
2022/04/27 13:46:39;;;;;;;4.37;4.07;;;17.70;31.80;;;;;;5240546;28;20555;-57